createdAt,value
2023-04-22T00:00:17.423Z,10.38
2023-04-22T00:02:44.650Z,10.07
2023-04-22T00:05:15.644Z,10.30
2023-04-22T00:07:44.301Z,10.68
2023-04-22T00:10:11.908Z,9.65
2023-04-22T00:12:39.038Z,9.55
2023-04-22T00:15:06.866Z,9.15
2023-04-22T00:17:34.231Z,10.38
2023-04-22T00:20:01.947Z,10.88
2023-04-22T00:22:29.012Z,10.57
2023-04-22T00:24:56.223Z,11.15
2023-04-22T00:27:23.230Z,11.27
2023-04-22T00:29:50.295Z,9.30
2023-04-22T00:32:17.288Z,9.23
2023-04-22T00:34:44.274Z,9.20
2023-04-22T00:37:11.424Z,9.70
2023-04-22T00:39:39.957Z,8.65
2023-04-22T00:42:07.996Z,9.27
2023-04-22T00:44:36.573Z,8.82
2023-04-22T00:47:04.486Z,10.10
2023-04-22T00:49:32.441Z,8.00
2023-04-22T00:51:59.433Z,8.98
2023-04-22T00:54:26.782Z,8.52
2023-04-22T00:56:53.764Z,8.43
2023-04-22T00:59:22.529Z,9.00
2023-04-22T01:01:49.989Z,7.80
2023-04-22T01:04:17.962Z,8.32
2023-04-22T01:06:45.448Z,8.05
2023-04-22T01:09:13.316Z,8.02
2023-04-22T01:11:41.030Z,7.40
2023-04-22T01:14:08.118Z,7.43
2023-04-22T01:16:35.981Z,7.87
2023-04-22T01:19:03.111Z,8.17
2023-04-22T01:21:33.598Z,8.57
2023-04-22T01:24:02.118Z,8.48
2023-04-22T01:26:29.578Z,8.07
2023-04-22T01:28:56.762Z,8.10
2023-04-22T01:31:24.174Z,8.63
2023-04-22T01:33:51.708Z,7.40
2023-04-22T01:36:18.889Z,8.20
2023-04-22T01:38:46.024Z,7.88
2023-04-22T01:41:14.743Z,8.10
2023-04-22T01:43:43.221Z,8.47
2023-04-22T01:46:10.428Z,7.23
2023-04-22T01:48:38.299Z,8.37
2023-04-22T01:51:05.706Z,8.07
2023-04-22T01:53:32.744Z,8.17
2023-04-22T01:56:00.477Z,8.77
2023-04-22T01:58:29.860Z,8.10
2023-04-22T02:00:57.189Z,8.23
2023-04-22T02:03:24.363Z,9.33
2023-04-22T02:05:51.572Z,8.83
2023-04-22T02:08:18.606Z,10.07
2023-04-22T02:10:45.668Z,9.57
2023-04-22T02:13:12.680Z,9.00
2023-04-22T02:19:49.164Z,8.33
2023-04-22T02:22:17.255Z,10.10
2023-04-22T02:24:44.306Z,8.87
2023-04-22T02:27:11.307Z,9.40
2023-04-22T02:29:38.876Z,8.00
2023-04-22T02:32:06.354Z,9.37
2023-04-22T02:34:33.370Z,9.03
2023-04-22T02:37:00.433Z,8.07
2023-04-22T02:39:27.417Z,8.77
2023-04-22T02:41:54.787Z,9.57
2023-04-22T02:44:21.790Z,8.10
2023-04-22T02:46:49.287Z,8.33
2023-04-22T02:49:16.358Z,8.07
2023-04-22T02:51:43.375Z,7.53
2023-04-22T02:54:10.397Z,8.03
2023-04-22T02:56:37.405Z,6.93
2023-04-22T02:59:04.637Z,8.87
2023-04-22T03:01:32.368Z,7.37
2023-04-22T03:03:59.825Z,6.83
2023-04-22T03:06:27.281Z,6.10
2023-04-22T03:08:54.289Z,7.27
2023-04-22T03:11:21.442Z,7.70
2023-04-22T03:13:48.511Z,7.60
2023-04-22T03:16:17.702Z,7.60
2023-04-22T03:18:44.799Z,7.23
2023-04-22T03:21:11.774Z,7.70
2023-04-22T03:23:38.888Z,7.10
2023-04-22T03:26:06.260Z,7.47
2023-04-22T03:28:33.665Z,7.70
2023-04-22T03:31:00.687Z,7.20
2023-04-22T03:33:27.696Z,7.83
2023-04-22T03:35:55.259Z,7.40
2023-04-22T03:38:22.312Z,8.03
2023-04-22T03:40:51.001Z,7.77
2023-04-22T03:43:18.630Z,7.53
2023-04-22T03:45:47.225Z,6.90
2023-04-22T03:48:14.268Z,8.30
2023-04-22T03:50:41.310Z,7.60
2023-04-22T03:53:08.335Z,7.53
2023-04-22T03:55:35.375Z,8.20
2023-04-22T03:58:02.440Z,8.23
2023-04-22T04:00:29.496Z,7.07
2023-04-22T04:02:56.637Z,6.95
2023-04-22T04:05:23.801Z,7.55
2023-04-22T04:07:51.105Z,7.50
2023-04-22T04:10:18.177Z,7.70
2023-04-22T04:12:45.166Z,7.22
2023-04-22T04:15:12.265Z,6.90
2023-04-22T04:17:39.784Z,8.05
2023-04-22T04:20:07.541Z,8.15
2023-04-22T04:22:35.087Z,7.82
2023-04-22T04:25:02.620Z,7.47
2023-04-22T04:27:29.822Z,7.82
2023-04-22T04:29:56.965Z,7.90
2023-04-22T04:32:25.066Z,7.60
2023-04-22T04:34:52.726Z,8.23
2023-04-22T04:37:19.737Z,7.45
2023-04-22T04:39:46.746Z,7.25
2023-04-22T04:42:14.491Z,7.43
2023-04-22T04:44:41.558Z,6.93
2023-04-22T04:47:08.596Z,7.35
2023-04-22T04:49:39.976Z,7.13
2023-04-22T04:52:10.263Z,7.05
2023-04-22T04:54:37.664Z,5.53
2023-04-22T04:57:06.057Z,6.10
2023-04-22T04:59:33.070Z,6.72
2023-04-22T05:02:00.127Z,5.85
2023-04-22T05:04:27.615Z,5.70
2023-04-22T05:06:54.831Z,7.38
2023-04-22T05:09:21.830Z,6.15
2023-04-22T05:11:48.814Z,6.40
2023-04-22T05:14:15.799Z,6.68
2023-04-22T05:16:42.971Z,6.13
2023-04-22T05:19:10.057Z,6.22
2023-04-22T05:21:37.088Z,6.35
2023-04-22T05:24:04.360Z,6.90
2023-04-22T05:26:31.369Z,6.15
2023-04-22T05:28:58.373Z,6.60
2023-04-22T05:31:25.397Z,5.53
2023-04-22T05:33:52.429Z,6.20
2023-04-22T05:36:19.437Z,6.40
2023-04-22T05:38:46.478Z,7.00
2023-04-22T05:41:13.523Z,7.47
2023-04-22T05:43:40.570Z,7.18
2023-04-22T05:46:07.707Z,7.30
2023-04-22T05:48:34.781Z,7.45
2023-04-22T05:51:02.008Z,7.20
2023-04-22T05:53:29.005Z,7.45
2023-04-22T05:55:56.114Z,7.82
2023-04-22T05:58:23.262Z,7.38
2023-04-22T06:00:50.264Z,7.47
2023-04-22T06:03:17.423Z,6.93
2023-04-22T06:05:44.770Z,7.00
2023-04-22T06:08:11.847Z,6.90
2023-04-22T06:10:39.002Z,7.10
2023-04-22T06:13:06.275Z,6.30
2023-04-22T06:15:34.944Z,6.40
2023-04-22T06:18:02.289Z,6.65
2023-04-22T06:20:29.512Z,6.57
2023-04-22T06:22:56.539Z,7.00
2023-04-22T06:25:23.617Z,6.22
2023-04-22T06:27:51.021Z,5.80
2023-04-22T06:30:18.094Z,7.80
2023-04-22T06:32:45.246Z,7.47
2023-04-22T06:35:12.346Z,7.00
2023-04-22T06:37:39.356Z,6.25
2023-04-22T06:40:07.499Z,5.68
2023-04-22T06:42:34.707Z,5.70
2023-04-22T06:45:02.135Z,5.57
2023-04-22T06:47:29.275Z,5.30
2023-04-22T06:49:56.263Z,5.63
2023-04-22T06:52:24.261Z,5.57
2023-04-22T06:54:51.371Z,5.82
2023-04-22T06:57:18.370Z,5.85
2023-04-22T06:59:46.803Z,5.55
2023-04-22T07:02:14.426Z,5.15
2023-04-22T07:04:41.760Z,5.25
2023-04-22T07:07:09.238Z,5.75
2023-04-22T07:09:37.131Z,5.32
2023-04-22T07:12:04.728Z,5.20
2023-04-22T07:14:32.352Z,4.57
2023-04-22T07:17:00.241Z,4.97
2023-04-22T07:19:27.377Z,5.22
2023-04-22T07:21:54.634Z,5.60
2023-04-22T07:24:21.787Z,5.43
2023-04-22T07:26:48.996Z,4.88
2023-04-22T07:29:16.056Z,4.35
2023-04-22T07:31:44.078Z,4.70
2023-04-22T07:34:11.275Z,4.65
2023-04-22T07:36:38.537Z,4.93
2023-04-22T07:39:05.819Z,4.97
2023-04-22T07:41:32.863Z,4.05
2023-04-22T07:44:00.517Z,3.80
2023-04-22T07:46:27.736Z,3.83
2023-04-22T07:48:55.155Z,5.65
2023-04-22T07:51:22.219Z,4.32
2023-04-22T07:53:49.280Z,4.25
2023-04-22T07:56:16.325Z,4.57
2023-04-22T07:58:43.348Z,4.40
2023-04-22T08:01:10.476Z,4.13
2023-04-22T08:03:37.928Z,3.80
2023-04-22T08:06:05.147Z,4.75
2023-04-22T08:08:32.196Z,4.18
2023-04-22T08:10:59.175Z,3.92
2023-04-22T08:13:26.206Z,5.15
2023-04-22T08:15:53.326Z,4.45
2023-04-22T08:18:20.759Z,4.60
2023-04-22T08:20:48.116Z,5.07
2023-04-22T08:23:15.456Z,4.55
2023-04-22T08:25:42.851Z,4.88
2023-04-22T08:28:09.959Z,4.95
2023-04-22T08:30:36.981Z,4.38
2023-04-22T08:33:03.992Z,4.35
2023-04-22T08:35:31.343Z,4.68
2023-04-22T08:37:58.436Z,4.43
2023-04-22T08:40:27.772Z,4.00
2023-04-22T08:42:58.616Z,4.05
2023-04-22T08:45:25.864Z,4.03
2023-04-22T08:47:54.250Z,3.78
2023-04-22T08:50:25.568Z,3.50
2023-04-22T08:52:52.624Z,3.35
2023-04-22T08:55:19.880Z,3.83
2023-04-22T08:57:48.822Z,3.88
2023-04-22T09:00:16.733Z,3.05
2023-04-22T09:02:45.826Z,3.50
2023-04-22T09:05:14.996Z,3.20
2023-04-22T09:07:42.419Z,3.10
2023-04-22T09:10:11.890Z,3.28
2023-04-22T09:12:40.886Z,2.30
2023-04-22T09:15:09.806Z,2.13
2023-04-22T09:17:39.214Z,2.60
2023-04-22T09:20:08.889Z,2.20
2023-04-22T09:22:49.019Z,2.30
2023-04-22T09:25:25.631Z,2.80
2023-04-22T09:27:59.851Z,2.40
2023-04-22T09:30:33.589Z,2.47
2023-04-22T09:33:03.178Z,2.40
2023-04-22T09:35:37.155Z,2.70
2023-04-22T09:38:10.430Z,2.33
2023-04-22T09:40:42.332Z,2.72
2023-04-22T09:43:10.195Z,2.38
2023-04-22T09:45:41.504Z,2.78
2023-04-22T09:48:13.795Z,2.60
2023-04-22T09:50:49.964Z,2.63
2023-04-22T09:53:22.027Z,2.50
2023-04-22T09:55:53.327Z,2.30
2023-04-22T09:58:27.752Z,2.17
2023-04-22T10:00:58.136Z,3.17
2023-04-22T10:03:25.354Z,2.67
2023-04-22T10:05:52.489Z,2.90
2023-04-22T10:08:19.536Z,2.40
2023-04-22T10:10:46.830Z,2.15
2023-04-22T10:13:13.997Z,2.65
2023-04-22T10:15:47.934Z,2.70
2023-04-22T10:18:22.894Z,2.22
2023-04-22T10:20:51.286Z,2.20
2023-04-22T10:23:24.374Z,2.00
2023-04-22T10:25:55.395Z,2.08
2023-04-22T10:28:24.506Z,2.40
2023-04-22T10:30:51.942Z,2.60
2023-04-22T10:33:21.783Z,2.30
2023-04-22T10:36:09.633Z,2.58
2023-04-22T10:38:55.620Z,2.13
2023-04-22T10:41:31.374Z,2.42
2023-04-22T10:44:08.145Z,2.15
2023-04-22T10:46:37.144Z,1.85
2023-04-22T10:49:13.954Z,2.30
2023-04-22T10:51:48.324Z,2.20
2023-04-22T10:54:30.634Z,2.70
2023-04-22T10:57:22.841Z,2.92
2023-04-22T10:59:58.520Z,2.67
2023-04-22T11:02:26.126Z,2.10
2023-04-22T11:05:21.906Z,2.13
2023-04-22T11:07:53.232Z,2.33
2023-04-22T11:10:44.579Z,2.70
2023-04-22T11:13:21.495Z,1.98
2023-04-22T11:15:55.230Z,2.30
2023-04-22T11:18:25.966Z,3.17
2023-04-22T11:20:53.898Z,2.35
2023-04-22T11:23:27.193Z,2.20
2023-04-22T11:26:02.387Z,2.50
2023-04-22T11:28:29.680Z,2.28
2023-04-22T11:31:05.688Z,2.22
2023-04-22T11:33:34.810Z,2.20
2023-04-22T11:36:02.239Z,2.75
2023-04-22T11:38:29.231Z,3.17
2023-04-22T11:40:58.451Z,2.88
2023-04-22T11:43:25.550Z,2.60
2023-04-22T11:45:55.669Z,2.83
2023-04-22T11:48:22.871Z,2.60
2023-04-22T11:51:06.550Z,2.67
2023-04-22T11:53:33.512Z,2.45
2023-04-22T11:56:02.722Z,2.30
2023-04-22T11:58:29.746Z,2.20
2023-04-22T12:01:00.767Z,2.83
2023-04-22T12:03:30.559Z,2.83
2023-04-22T12:06:06.016Z,2.58
2023-04-22T12:08:44.392Z,2.20
2023-04-22T12:11:12.566Z,2.40
2023-04-22T12:13:42.113Z,2.60
2023-04-22T12:16:20.086Z,2.50
2023-04-22T12:18:55.558Z,2.35
2023-04-22T12:21:25.199Z,2.55
2023-04-22T12:24:00.648Z,2.97
2023-04-22T12:26:28.314Z,2.28
2023-04-22T12:28:58.233Z,2.83
2023-04-22T12:31:26.934Z,3.38
2023-04-22T12:33:54.268Z,2.42
2023-04-22T12:36:22.048Z,2.30
2023-04-22T12:38:49.803Z,2.80
2023-04-22T12:41:17.120Z,3.08
2023-04-22T12:43:44.411Z,2.72
2023-04-22T12:46:11.466Z,2.35
2023-04-22T12:48:38.542Z,2.53
2023-04-22T12:51:06.993Z,3.13
2023-04-22T12:53:34.495Z,3.17
2023-04-22T12:56:01.685Z,2.50
2023-04-22T12:58:28.798Z,2.35
2023-04-22T13:00:55.792Z,2.80
2023-04-22T13:03:22.993Z,2.38
2023-04-22T13:05:50.413Z,2.33
2023-04-22T13:08:18.021Z,2.63
2023-04-22T13:10:45.036Z,2.38
2023-04-22T13:15:42.018Z,2.67
2023-04-22T13:18:09.094Z,2.90
2023-04-22T13:20:36.229Z,2.65
2023-04-22T13:23:04.726Z,2.80
2023-04-22T13:25:32.090Z,2.85
2023-04-22T13:27:59.079Z,2.80
2023-04-22T13:30:26.247Z,2.60
2023-04-22T13:32:53.442Z,2.28
2023-04-22T13:35:20.856Z,2.50
2023-04-22T13:37:47.866Z,2.95
2023-04-22T13:40:15.273Z,2.85
2023-04-22T13:42:44.381Z,2.45
2023-04-22T13:45:11.528Z,2.42
2023-04-22T13:47:38.527Z,3.15
2023-04-22T13:50:06.586Z,3.85
2023-04-22T13:52:34.015Z,2.90
2023-04-22T13:55:03.134Z,2.78
2023-04-22T13:57:30.635Z,2.90
2023-04-22T13:59:57.715Z,2.83
2023-04-22T14:02:24.799Z,3.00
2023-04-22T14:04:52.148Z,2.70
2023-04-22T14:07:19.173Z,2.30
2023-04-22T14:09:46.223Z,3.60
2023-04-22T14:12:13.788Z,4.60
2023-04-22T14:14:40.828Z,4.10
2023-04-22T14:17:08.247Z,3.40
2023-04-22T14:19:39.107Z,4.85
2023-04-22T14:22:06.700Z,4.22
2023-04-22T14:24:33.929Z,3.53
2023-04-22T14:27:01.870Z,3.70
2023-04-22T14:29:29.937Z,3.40
2023-04-22T14:31:58.438Z,3.42
2023-04-22T14:34:26.950Z,3.40
2023-04-22T14:36:54.256Z,2.90
2023-04-22T14:39:21.573Z,2.35
2023-04-22T14:41:49.263Z,2.95
2023-04-22T14:44:16.652Z,2.50
2023-04-22T14:46:43.857Z,2.88
2023-04-22T14:49:10.857Z,2.45
2023-04-22T14:51:37.890Z,2.50
2023-04-22T14:54:05.539Z,2.47
2023-04-22T14:56:32.544Z,2.20
2023-04-22T14:58:59.666Z,3.15
2023-04-22T15:01:26.710Z,2.40
2023-04-22T15:03:53.878Z,2.20
2023-04-22T15:06:23.050Z,2.42
2023-04-22T15:08:51.825Z,2.28
2023-04-22T15:11:18.990Z,2.50
2023-04-22T15:13:46.117Z,2.03
2023-04-22T15:16:13.558Z,2.35
2023-04-22T15:18:40.928Z,2.85
2023-04-22T15:21:10.554Z,2.30
2023-04-22T15:23:37.753Z,2.50
2023-04-22T15:26:04.889Z,1.98
2023-04-22T15:28:31.912Z,2.70
2023-04-22T15:30:59.092Z,2.50
2023-04-22T15:33:26.153Z,2.13
2023-04-22T15:35:53.281Z,2.40
2023-04-22T15:38:20.300Z,2.30
2023-04-22T15:40:47.322Z,2.60
2023-04-22T15:43:14.306Z,2.38
2023-04-22T15:45:41.398Z,2.53
2023-04-22T15:48:09.620Z,2.00
2023-04-22T15:50:38.773Z,2.55
2023-04-22T15:53:06.873Z,2.60
2023-04-22T15:55:33.858Z,2.55
2023-04-22T15:58:00.834Z,2.70
2023-04-22T16:00:27.956Z,2.88
2023-04-22T16:02:55.676Z,2.60
2023-04-22T16:05:24.940Z,2.38
2023-04-22T16:07:53.348Z,3.78
2023-04-22T16:10:20.873Z,2.63
2023-04-22T16:12:48.012Z,2.45
2023-04-22T16:15:15.108Z,2.70
2023-04-22T16:17:43.155Z,2.70
2023-04-22T16:20:10.754Z,2.20
2023-04-22T16:22:37.789Z,2.08
2023-04-22T16:25:05.733Z,2.45
2023-04-22T16:27:32.900Z,2.03
2023-04-22T16:29:59.928Z,2.42
2023-04-22T16:32:27.059Z,2.30
2023-04-22T16:34:54.048Z,2.60
2023-04-22T16:37:21.083Z,2.80
2023-04-22T16:39:48.128Z,2.35
2023-04-22T16:42:15.224Z,2.97
2023-04-22T16:44:42.224Z,2.95
2023-04-22T16:47:09.269Z,3.15
2023-04-22T16:49:36.281Z,2.55
2023-04-22T16:52:03.604Z,2.55
2023-04-22T16:54:30.563Z,2.22
2023-04-22T16:56:57.777Z,2.85
2023-04-22T16:59:24.934Z,3.38
2023-04-22T17:01:52.267Z,2.50
2023-04-22T17:04:19.520Z,2.60
2023-04-22T17:06:46.661Z,2.50
2023-04-22T17:09:13.676Z,2.58
2023-04-22T17:11:40.676Z,3.55
2023-04-22T17:14:07.981Z,3.17
2023-04-22T17:16:35.082Z,2.53
2023-04-22T17:19:02.121Z,3.38
2023-04-22T17:21:29.389Z,3.30
2023-04-22T17:23:58.644Z,5.57
2023-04-22T17:26:25.965Z,5.60
2023-04-22T17:28:52.969Z,4.70
2023-04-22T17:31:20.461Z,8.80
2023-04-22T17:33:47.973Z,5.32
2023-04-22T17:36:15.055Z,11.07
2023-04-22T17:38:42.070Z,6.70
2023-04-22T17:41:09.131Z,6.40
2023-04-22T17:43:36.299Z,5.63
2023-04-22T17:46:03.390Z,5.90
2023-04-22T17:48:30.388Z,5.35
2023-04-22T17:51:01.397Z,5.30
2023-04-22T17:53:28.428Z,4.28
2023-04-22T17:55:55.496Z,4.00
2023-04-22T17:58:22.592Z,4.55
2023-04-22T18:00:49.606Z,4.25
2023-04-22T18:03:17.591Z,3.40
2023-04-22T18:05:44.765Z,3.40
2023-04-22T18:08:11.899Z,3.33
2023-04-22T18:10:39.480Z,3.50
2023-04-22T18:13:06.930Z,3.53
2023-04-22T18:15:34.010Z,4.05
2023-04-22T18:18:01.399Z,4.03
2023-04-22T18:20:28.558Z,5.10
2023-04-22T18:22:56.535Z,4.40
2023-04-22T18:25:24.311Z,3.65
2023-04-22T18:27:55.045Z,4.10
2023-04-22T18:30:25.436Z,3.97
2023-04-22T18:32:52.688Z,4.20
2023-04-22T18:35:20.253Z,4.53
2023-04-22T18:37:47.452Z,5.50
2023-04-22T18:40:15.059Z,5.60
2023-04-22T18:42:44.847Z,6.60
2023-04-22T18:45:12.249Z,7.30
2023-04-22T18:47:39.351Z,5.88
2023-04-22T18:50:07.208Z,7.55
2023-04-22T18:52:34.665Z,7.97
2023-04-22T18:55:01.687Z,8.30
2023-04-22T18:57:28.880Z,9.40
2023-04-22T18:59:56.190Z,10.15
2023-04-22T19:02:23.331Z,9.35
2023-04-22T19:04:51.366Z,9.85
2023-04-22T19:07:18.377Z,10.00
2023-04-22T19:09:45.531Z,9.25
2023-04-22T19:12:14.809Z,9.63
2023-04-22T19:14:42.447Z,10.55
2023-04-22T19:17:09.944Z,10.25
2023-04-22T19:19:36.933Z,9.23
2023-04-22T19:22:03.955Z,15.20
2023-04-22T19:24:33.623Z,29.38
2023-04-22T19:27:06.959Z,22.58
2023-04-22T19:29:34.099Z,16.70
2023-04-22T19:32:01.876Z,11.63
2023-04-22T19:34:29.134Z,12.77
2023-04-22T19:36:56.306Z,12.65
2023-04-22T19:39:23.665Z,15.48
2023-04-22T19:41:51.742Z,15.18
2023-04-22T19:44:18.959Z,14.38
2023-04-22T19:46:45.988Z,16.25
2023-04-22T19:49:13.494Z,15.05
2023-04-22T19:51:41.880Z,13.48
2023-04-22T19:54:10.933Z,14.75
2023-04-22T19:56:38.676Z,18.02
2023-04-22T19:59:07.055Z,18.70
2023-04-22T20:01:35.150Z,20.40
2023-04-22T20:04:04.239Z,19.17
2023-04-22T20:06:32.705Z,17.45
2023-04-22T20:09:01.623Z,16.58
2023-04-22T20:11:29.577Z,12.13
2023-04-22T20:13:57.036Z,10.77
2023-04-22T20:16:24.420Z,12.35
2023-04-22T20:18:51.592Z,15.25
2023-04-22T20:21:20.039Z,15.80
2023-04-22T20:23:50.308Z,14.77
2023-04-22T20:26:20.904Z,15.23
2023-04-22T20:28:52.225Z,14.63
2023-04-22T20:31:20.761Z,12.68
2023-04-22T20:33:48.591Z,12.10
2023-04-22T20:36:18.230Z,12.82
2023-04-22T20:38:48.904Z,12.30
2023-04-22T20:41:20.199Z,11.70
2023-04-22T20:43:47.341Z,12.55
2023-04-22T20:46:14.507Z,11.90
2023-04-22T20:48:41.637Z,11.35
2023-04-22T20:51:08.886Z,11.38
2023-04-22T20:53:36.259Z,11.70
2023-04-22T20:56:03.697Z,12.32
2023-04-22T20:58:32.480Z,12.60
2023-04-22T21:00:59.680Z,13.02
2023-04-22T21:03:28.070Z,12.93
2023-04-22T21:05:56.842Z,11.63
2023-04-22T21:08:25.532Z,11.13
2023-04-22T21:10:56.000Z,10.80
2023-04-22T21:13:23.861Z,12.10
2023-04-22T21:15:57.783Z,10.38
2023-04-22T21:18:26.586Z,11.02
2023-04-22T21:20:54.989Z,10.23
2023-04-22T21:23:24.612Z,10.07
2023-04-22T21:25:54.829Z,11.20
2023-04-22T21:28:22.965Z,9.68
2023-04-22T21:30:50.636Z,10.27
2023-04-22T21:33:17.642Z,9.40
2023-04-22T21:35:44.785Z,10.15
2023-04-22T21:38:12.014Z,10.02
2023-04-22T21:40:39.038Z,9.45
2023-04-22T21:43:06.129Z,10.95
2023-04-22T21:45:34.540Z,9.93
2023-04-22T21:48:01.641Z,9.70
2023-04-22T21:50:30.445Z,10.40
2023-04-22T21:52:57.961Z,9.82
2023-04-22T21:55:25.011Z,9.43
2023-04-22T21:57:52.174Z,10.93
2023-04-22T22:00:19.419Z,9.18
2023-04-22T22:02:48.417Z,10.07
2023-04-22T22:05:16.122Z,9.98
2023-04-22T22:07:44.830Z,9.60
2023-04-22T22:10:18.219Z,10.13
2023-04-22T22:12:47.001Z,9.25
2023-04-22T22:15:16.149Z,9.23
2023-04-22T22:17:44.764Z,8.30
2023-04-22T22:20:16.816Z,9.77
2023-04-22T22:22:44.551Z,9.60
2023-04-22T22:25:14.904Z,9.68
2023-04-22T22:27:47.217Z,8.23
2023-04-22T22:30:18.982Z,9.05
2023-04-22T22:32:46.406Z,8.68
2023-04-22T22:35:13.884Z,8.80
2023-04-22T22:37:41.119Z,10.55
2023-04-22T22:40:09.081Z,8.85
2023-04-22T22:42:36.307Z,9.15
2023-04-22T22:45:05.124Z,9.00
2023-04-22T22:47:32.639Z,8.48
2023-04-22T22:49:59.888Z,8.43
2023-04-22T22:52:27.515Z,8.73
2023-04-22T22:54:54.576Z,8.02
2023-04-22T22:57:21.627Z,8.50
2023-04-22T22:59:48.679Z,9.02
2023-04-22T23:02:15.822Z,10.15
2023-04-22T23:04:43.386Z,8.55
2023-04-22T23:07:10.727Z,10.52
2023-04-22T23:09:37.718Z,7.85
2023-04-22T23:12:05.491Z,8.60
2023-04-22T23:14:33.421Z,7.07
2023-04-22T23:17:00.616Z,8.00
2023-04-22T23:19:28.623Z,8.20
2023-04-22T23:21:56.510Z,8.48
2023-04-22T23:24:23.852Z,7.90
2023-04-22T23:26:51.299Z,7.47
2023-04-22T23:29:19.580Z,9.25
2023-04-22T23:31:50.414Z,8.35
2023-04-22T23:34:19.027Z,7.63
2023-04-22T23:36:46.212Z,9.02
2023-04-22T23:39:13.377Z,8.90
2023-04-22T23:41:40.381Z,8.93
2023-04-22T23:44:07.335Z,8.63
2023-04-22T23:46:34.512Z,9.73
2023-04-22T23:49:02.043Z,9.73
2023-04-22T23:51:29.797Z,9.18
2023-04-22T23:53:56.844Z,9.23
2023-04-22T23:56:24.282Z,9.05
2023-04-22T23:58:51.646Z,9.40
